Decoded Metar for KBKW (BECKLEY in WV, USA) (IATA:BKW) | Meteo·Mobile Aviation Weather
aviador You're here:

KBKW Decoded Metar

BECKLEY in WV, USA
Report Time2018-11-18 20:51:00
UTC Time2018-11-18 21:36:27
Flight Rules vfr VFR
Wind220° at 08 kt
W.Decomp.*RWY 19: 6.5 kt HW 4.7 kt RCW
RWY 28: 4.7 kt HW 6.5 kt LCW
W.Rank220° ranks 7
Current wind is above 220° avg. (6.8)
Visibility9999 m
Phenomena:N/A
Clouds:N/A
Expected CloudBase > 4,000 ft AGL from Temp-Dew spread
CeilingNone
Temp12°C (ISA +2)
Dew Point02°C (51% RH)
AAT7.5°C
QNH1021 hPa
Density Alt2,575 ft
Elevation2,507 ft
Report Wrong Elevation
Raw Report
KBKW 182051Z AUTO 22008KT 10SM CLR 12/02 A3016 RMK AO2 SLP218
T01170017 56013 TSNO=

Extra information for KBKW:More info

Metar Taf Metar & Taf Last 4 Metars F.Rules Stats Wind Profile Meteogram Temp Stats Airport Information Weather charts Add Link Nearby VenuesMetar ALERT Operation Metar Decoded Social comments

AIRNAV info for KBKW